Midland, Texas
Current Conditions -  °F | °C
As of 11:15 AM on Sunday 23 Nov 2014 (Local Time) from KMDD Reporting Station
Clear Clear  
Wind Chill: 67°   Ceiling: Unl
Heat Index: 67°   Visibility: 10mi
Dew Point: 27°   Wind: 16mph
Humidity: 22%   Direction: 280°W
Pressure: 29.7"   Gusts: 26mph
Location:  32°N, 102.07°W
Report Text: KMDD 231715Z AUTO 28014G23KT 10SM CLR 20/M03 A2970 RMK AO2 T01971030
Loading
Personal Weather Stations






























Interactive Weather Map New forecast layout! Learn more

10-Day Weather Forecast

Advertisements
Track Severe Weather on mobile